Time,TemperatureF,DewpointF,PressureIn,WindDirection,WindDirectionDegrees,WindSpeedMPH,WindSpeedGustMPH,Humidity,HourlyPrecipIn,Conditions,Clouds,dailyrainin,SoftwareType,DateUTC
2014-02-03 00:25:00,30.0,22.0,29.89,North,-999,0.0,-999.0,72,0.00,,,-99.99,,2014-02-03 08:25:00,
2014-02-03 00:34:00,30.0,22.0,29.89,North,-999,0.0,-999.0,72,0.00,,,-99.99,,2014-02-03 08:34:00,
2014-02-03 00:44:00,30.0,22.0,29.89,North,-999,0.0,-999.0,72,0.00,,,-99.99,,2014-02-03 08:44:00,
2014-02-03 00:54:00,30.0,22.0,29.89,North,-999,0.0,-999.0,72,0.00,,,-99.99,,2014-02-03 08:54:00,
2014-02-03 01:21:00,30.0,22.0,29.89,North,-999,0.0,-999.0,73,0.00,,,-99.99,,2014-02-03 09:21:00,
2014-02-03 01:33:00,30.0,22.0,29.89,North,-999,0.0,-999.0,73,0.00,,,-99.99,,2014-02-03 09:33:00,
2014-02-03 01:43:00,30.0,22.0,29.89,North,-999,0.0,-999.0,73,0.00,,,-99.99,,2014-02-03 09:43:00,
2014-02-03 01:53:00,30.0,22.0,29.89,North,-999,0.0,-999.0,73,0.00,,,-99.99,,2014-02-03 09:53:00,
2014-02-03 02:42:00,29.0,22.0,29.88,North,-999,0.0,-999.0,76,0.00,,,-99.99,,2014-02-03 10:42:00,
2014-02-03 02:52:00,29.0,22.0,29.88,North,-999,0.0,-999.0,76,0.00,,,-99.99,,2014-02-03 10:52:00,
2014-02-03 03:22:00,29.0,25.0,29.85,North,-999,0.0,-999.0,84,0.00,,,-99.99,,2014-02-03 11:22:00,
2014-02-03 03:33:00,29.0,25.0,29.85,North,-999,0.0,-999.0,84,0.00,,,-99.99,,2014-02-03 11:33:00,
2014-02-03 03:42:00,29.0,25.0,29.85,North,-999,0.0,-999.0,84,0.00,,,-99.99,,2014-02-03 11:42:00,
2014-02-03 03:52:00,29.0,25.0,29.85,North,-999,0.0,-999.0,84,0.00,,,-99.99,,2014-02-03 11:52:00,
2014-02-03 04:42:00,28.0,24.0,29.83,North,-999,0.0,-999.0,85,0.00,,,-99.99,,2014-02-03 12:42:00,
2014-02-03 04:52:00,28.0,24.0,29.83,North,-999,0.0,-999.0,85,0.00,,,-99.99,,2014-02-03 12:52:00,
2014-02-03 05:42:00,27.0,24.0,29.83,North,-999,0.0,-999.0,87,0.00,,,-99.99,,2014-02-03 13:42:00,
2014-02-03 05:52:00,27.0,24.0,29.83,North,-999,0.0,-999.0,87,0.00,,,-99.99,,2014-02-03 13:52:00,
2014-02-03 06:21:00,28.0,24.0,29.83,North,-999,0.0,-999.0,83,0.00,,,-99.99,,2014-02-03 14:21:00,
2014-02-03 06:32:00,28.0,24.0,29.83,North,-999,0.0,-999.0,83,0.00,,,-99.99,,2014-02-03 14:32:00,
2014-02-03 06:42:00,28.0,24.0,29.83,North,-999,0.0,-999.0,83,0.00,,,-99.99,,2014-02-03 14:42:00,
2014-02-03 06:52:00,28.0,24.0,29.83,North,-999,0.0,-999.0,83,0.00,,,-99.99,,2014-02-03 14:52:00,
2014-02-03 07:22:00,29.0,24.0,29.84,NNW,330,1.0,-999.0,81,0.00,,,-99.99,,2014-02-03 15:22:00,
2014-02-03 07:34:00,29.0,24.0,29.84,NNW,330,1.0,-999.0,81,0.00,,,-99.99,,2014-02-03 15:34:00,
2014-02-03 07:43:00,29.0,24.0,29.84,NNW,330,1.0,-999.0,81,0.00,,,-99.99,,2014-02-03 15:43:00,
2014-02-03 07:53:00,29.0,24.0,29.84,NNW,330,1.0,-999.0,81,0.00,,,-99.99,,2014-02-03 15:53:00,
2014-02-03 08:43:00,32.0,25.0,29.85,NE,40,2.0,-999.0,76,0.00,,,-99.99,,2014-02-03 16:43:00,
2014-02-03 08:53:00,32.0,25.0,29.85,NE,40,2.0,-999.0,76,0.00,,,-99.99,,2014-02-03 16:53:00,
2014-02-03 09:22:00,35.0,25.0,29.87,North,-999,0.0,-999.0,67,0.00,,,-99.99,,2014-02-03 17:22:00,
2014-02-03 09:34:00,35.0,25.0,29.87,North,-999,0.0,-999.0,67,0.00,,,-99.99,,2014-02-03 17:34:00,
2014-02-03 09:42:00,35.0,25.0,29.87,North,-999,0.0,-999.0,67,0.00,,,-99.99,,2014-02-03 17:42:00,
2014-02-03 09:52:00,35.0,25.0,29.87,North,-999,0.0,-999.0,67,0.00,,,-99.99,,2014-02-03 17:52:00,
2014-02-03 10:43:00,36.0,26.0,29.88,SSW,210,3.0,-999.0,68,0.00,,,-99.99,,2014-02-03 18:43:00,
2014-02-03 10:52:00,36.0,26.0,29.88,SSW,210,3.0,-999.0,68,0.00,,,-99.99,,2014-02-03 18:52:00,
2014-02-03 11:42:00,36.0,27.0,29.89,NE,40,1.0,-999.0,69,0.00,,,-99.99,,2014-02-03 19:42:00,
2014-02-03 11:52:00,36.0,27.0,29.89,NE,40,1.0,-999.0,69,0.00,,,-99.99,,2014-02-03 19:52:00,
2014-02-03 12:22:00,39.0,29.0,29.88,West,270,4.0,-999.0,68,0.00,,,-99.99,,2014-02-03 20:22:00,
2014-02-03 12:32:00,39.0,29.0,29.88,West,270,4.0,-999.0,68,0.00,,,-99.99,,2014-02-03 20:32:00,
2014-02-03 12:42:00,39.0,29.0,29.88,West,270,4.0,-999.0,68,0.00,,,-99.99,,2014-02-03 20:42:00,
2014-02-03 12:52:00,39.0,29.0,29.88,West,270,4.0,-999.0,68,0.00,,,-99.99,,2014-02-03 20:52:00,
2014-02-03 13:43:00,38.0,30.0,29.86,SW,230,4.0,-999.0,73,0.00,,,-99.99,,2014-02-03 21:43:00,
2014-02-03 13:53:00,38.0,30.0,29.86,SW,230,4.0,-999.0,73,0.00,,,-99.99,,2014-02-03 21:53:00,
2014-02-03 14:42:00,39.0,32.0,29.85,WSW,240,6.0,-999.0,77,0.00,,,-99.99,,2014-02-03 22:42:00,
2014-02-03 14:53:00,39.0,32.0,29.85,WSW,240,6.0,-999.0,77,0.00,,,-99.99,,2014-02-03 22:53:00,
2014-02-03 15:42:00,38.0,31.0,29.86,West,260,2.0,-999.0,77,0.00,,,-99.99,,2014-02-03 23:42:00,
2014-02-03 15:52:00,38.0,31.0,29.86,West,260,2.0,-999.0,77,0.00,,,-99.99,,2014-02-03 23:52:00,
2014-02-03 16:21:00,36.0,32.0,29.86,WNW,300,4.0,-999.0,85,0.00,,,-99.99,,2014-02-04 00:21:00,
2014-02-03 16:32:00,36.0,32.0,29.86,WNW,300,4.0,-999.0,85,0.00,,,-99.99,,2014-02-04 00:32:00,
2014-02-03 16:42:00,36.0,32.0,29.86,WNW,300,4.0,-999.0,85,0.00,,,-99.99,,2014-02-04 00:42:00,
2014-02-03 16:52:00,36.0,32.0,29.86,WNW,300,4.0,-999.0,85,0.00,,,-99.99,,2014-02-04 00:52:00,
2014-02-03 17:42:00,35.0,32.0,29.87,WSW,240,1.0,-999.0,88,0.00,,,-99.99,,2014-02-04 01:42:00,
2014-02-03 17:52:00,35.0,32.0,29.87,WSW,240,1.0,-999.0,88,0.00,,,-99.99,,2014-02-04 01:52:00,
2014-02-03 18:42:00,34.0,32.0,29.87,North,-999,0.0,-999.0,92,0.00,,,-99.99,,2014-02-04 02:42:00,
2014-02-03 18:52:00,34.0,32.0,29.87,North,-999,0.0,-999.0,92,0.00,,,-99.99,,2014-02-04 02:52:00,
2014-02-03 19:43:00,34.0,33.0,29.88,WSW,240,1.0,-999.0,96,0.00,,,-99.99,,2014-02-04 03:43:00,
2014-02-03 19:53:00,34.0,33.0,29.88,WSW,240,1.0,-999.0,96,0.00,,,-99.99,,2014-02-04 03:53:00,
2014-02-03 20:42:00,34.0,33.0,29.90,SSW,200,4.0,-999.0,97,0.00,,,-99.99,,2014-02-04 04:42:00,
2014-02-03 20:53:00,34.0,33.0,29.90,SSW,200,4.0,-999.0,97,0.00,,,-99.99,,2014-02-04 04:53:00,
2014-02-03 21:43:00,33.0,32.0,29.91,West,260,1.0,-999.0,98,0.00,,,-99.99,,2014-02-04 05:43:00,
2014-02-03 21:52:00,33.0,32.0,29.91,West,260,1.0,-999.0,98,0.00,,,-99.99,,2014-02-04 05:52:00,
2014-02-03 22:42:00,33.0,32.0,29.92,WSW,240,1.0,-999.0,98,0.00,,,-99.99,,2014-02-04 06:42:00,
2014-02-03 22:52:00,33.0,32.0,29.92,WSW,240,1.0,-999.0,98,0.00,,,-99.99,,2014-02-04 06:52:00,
2014-02-03 23:42:00,31.0,31.0,29.93,West,260,2.0,-999.0,98,0.00,,,-99.99,,2014-02-04 07:42:00,
2014-02-03 23:52:00,31.0,31.0,29.93,West,260,2.0,-999.0,98,0.00,,,-99.99,,2014-02-04 07:52:00,